Time,TemperatureF,DewpointF,PressureIn,WindDirection,WindDirectionDegrees,WindSpeedMPH,WindSpeedGustMPH,Humidity,HourlyPrecipIn,Conditions,Clouds,dailyrainin,SoftwareType,DateUTC
2013-12-14 00:01:00,25.3,14.1,30.38,NW,311,5.0,7.0,62,0.00,,---,0.00,VWS V14.01,2013-12-14 05:01:00,
2013-12-14 00:02:00,25.3,14.1,30.38,WNW,288,6.0,10.0,62,0.00,,---,0.00,VWS V14.01,2013-12-14 05:02:00,
2013-12-14 00:07:00,25.2,14.0,30.38,North,355,4.0,7.0,62,0.00,,---,0.00,VWS V14.01,2013-12-14 05:07:00,
2013-12-14 00:12:00,25.1,13.9,30.38,NE,44,4.0,7.0,62,0.00,,---,0.00,VWS V14.01,2013-12-14 05:12:00,
2013-12-14 00:17:00,25.1,13.9,30.38,NNW,327,3.0,5.0,62,0.00,,---,0.00,VWS V14.01,2013-12-14 05:17:00,
2013-12-14 00:22:00,25.0,13.8,30.38,NNW,340,2.0,4.0,62,0.00,,---,0.00,VWS V14.01,2013-12-14 05:22:00,
2013-12-14 00:27:00,25.0,13.8,30.38,NNW,333,4.0,4.0,62,0.00,,---,0.00,VWS V14.01,2013-12-14 05:27:00,
2013-12-14 00:32:00,25.0,14.2,30.38,North,350,3.0,4.0,63,0.00,,---,0.00,VWS V14.01,2013-12-14 05:32:00,
2013-12-14 00:37:00,25.0,14.2,30.38,North,5,2.0,4.0,63,0.00,,---,0.00,VWS V14.01,2013-12-14 05:37:00,
2013-12-14 00:42:00,24.9,14.1,30.38,NNE,15,2.0,4.0,63,0.00,,---,0.00,VWS V14.01,2013-12-14 05:42:00,
2013-12-14 00:47:00,24.9,14.1,30.39,North,355,3.0,4.0,63,0.00,,---,0.00,VWS V14.01,2013-12-14 05:47:00,
2013-12-14 00:52:00,24.8,14.0,30.39,NE,38,3.0,4.0,63,0.00,,---,0.00,VWS V14.01,2013-12-14 05:52:00,
2013-12-14 00:57:00,24.8,13.6,30.39,North,355,6.0,7.0,62,0.00,,---,0.00,VWS V14.01,2013-12-14 05:57:00,
2013-12-14 01:02:00,24.7,13.6,30.39,NNE,25,3.0,5.0,62,0.00,,---,0.00,VWS V14.01,2013-12-14 06:02:00,
2013-12-14 01:07:00,24.6,13.4,30.39,NNW,333,0.0,1.0,62,0.00,,---,0.00,VWS V14.01,2013-12-14 06:07:00,
2013-12-14 01:12:00,24.5,13.4,30.39,NNW,340,1.0,2.0,62,0.00,,---,0.00,VWS V14.01,2013-12-14 06:12:00,
2013-12-14 01:17:00,24.5,13.4,30.40,NW,324,2.0,5.0,62,0.00,,---,0.00,VWS V14.01,2013-12-14 06:17:00,
2013-12-14 01:22:00,24.4,13.3,30.40,WNW,302,3.0,6.0,62,0.00,,---,0.00,VWS V14.01,2013-12-14 06:22:00,
2013-12-14 01:27:00,24.4,12.9,30.40,NNW,338,6.0,8.0,61,0.00,,---,0.00,VWS V14.01,2013-12-14 06:27:00,
2013-12-14 01:32:00,24.3,13.2,30.41,NNW,342,1.0,3.0,62,0.00,,---,0.00,VWS V14.01,2013-12-14 06:32:00,
2013-12-14 01:37:00,24.3,13.2,30.41,NW,311,3.0,4.0,62,0.00,,---,0.00,VWS V14.01,2013-12-14 06:37:00,
2013-12-14 01:42:00,24.3,13.2,30.41,NNE,17,2.0,3.0,62,0.00,,---,0.00,VWS V14.01,2013-12-14 06:42:00,
2013-12-14 01:47:00,24.3,12.8,30.42,North,10,3.0,4.0,61,0.00,,---,0.00,VWS V14.01,2013-12-14 06:47:00,
2013-12-14 01:52:00,24.3,12.8,30.42,NNW,330,2.0,3.0,61,0.00,,---,0.00,VWS V14.01,2013-12-14 06:52:00,
2013-12-14 01:57:00,24.3,12.4,30.42,North,355,1.0,1.0,60,0.00,,---,0.00,VWS V14.01,2013-12-14 06:57:00,
2013-12-14 02:02:00,24.3,12.4,30.44,NNW,348,7.0,7.0,60,0.00,,---,0.00,VWS V14.01,2013-12-14 07:02:00,
2013-12-14 02:07:00,24.3,12.4,30.44,NW,322,0.0,1.0,60,0.00,,---,0.00,VWS V14.01,2013-12-14 07:07:00,
2013-12-14 02:12:00,24.3,12.4,30.44,North,355,2.0,3.0,60,0.00,,---,0.00,VWS V14.01,2013-12-14 07:12:00,
2013-12-14 02:17:00,24.3,12.8,30.44,North,5,1.0,3.0,61,0.00,,---,0.00,VWS V14.01,2013-12-14 07:17:00,
2013-12-14 02:22:00,24.3,12.4,30.44,NNW,333,2.0,3.0,60,0.00,,---,0.00,VWS V14.01,2013-12-14 07:22:00,
2013-12-14 02:27:00,24.3,12.1,30.44,North,9,4.0,6.0,59,0.00,,---,0.00,VWS V14.01,2013-12-14 07:27:00,
2013-12-14 02:32:00,24.3,12.1,30.44,NW,320,5.0,7.0,59,0.00,,---,0.00,VWS V14.01,2013-12-14 07:32:00,
2013-12-14 02:37:00,24.2,11.9,30.44,NNE,12,2.0,2.0,59,0.00,,---,0.00,VWS V14.01,2013-12-14 07:37:00,
2013-12-14 02:42:00,24.2,11.9,30.44,North,5,2.0,6.0,59,0.00,,---,0.00,VWS V14.01,2013-12-14 07:42:00,
2013-12-14 02:47:00,24.2,12.3,30.43,NNE,32,2.0,4.0,60,0.00,,---,0.00,VWS V14.01,2013-12-14 07:47:00,
2013-12-14 02:52:00,24.1,11.9,30.43,ENE,63,4.0,7.0,59,0.00,,---,0.00,VWS V14.01,2013-12-14 07:52:00,
2013-12-14 02:57:00,24.1,11.5,30.43,North,360,2.0,6.0,58,0.00,,---,0.00,VWS V14.01,2013-12-14 07:57:00,
2013-12-14 03:02:00,24.0,11.8,30.43,NE,44,3.0,3.0,59,0.00,,---,0.00,VWS V14.01,2013-12-14 08:02:00,
2013-12-14 03:07:00,24.0,11.0,30.43,NNE,23,5.0,5.0,57,0.00,,---,0.00,VWS V14.01,2013-12-14 08:07:00,
2013-12-14 03:12:00,23.9,10.9,30.43,NNE,27,3.0,4.0,57,0.00,,---,0.00,VWS V14.01,2013-12-14 08:12:00,
2013-12-14 03:17:00,23.9,10.9,30.44,NE,38,1.0,1.0,57,0.00,,---,0.00,VWS V14.01,2013-12-14 08:17:00,
2013-12-14 03:22:00,23.9,11.3,30.44,North,360,1.0,1.0,58,0.00,,---,0.00,VWS V14.01,2013-12-14 08:22:00,
2013-12-14 03:27:00,23.9,11.3,30.44,NE,34,1.0,1.0,58,0.00,,---,0.00,VWS V14.01,2013-12-14 08:27:00,
2013-12-14 03:32:00,23.9,11.7,30.44,NE,44,3.0,3.0,59,0.00,,---,0.00,VWS V14.01,2013-12-14 08:32:00,
2013-12-14 03:37:00,23.9,11.3,30.44,NE,41,4.0,6.0,58,0.00,,---,0.00,VWS V14.01,2013-12-14 08:37:00,
2013-12-14 03:42:00,23.9,11.7,30.44,NNE,13,3.0,5.0,59,0.00,,---,0.00,VWS V14.01,2013-12-14 08:42:00,
2013-12-14 03:47:00,23.8,11.2,30.44,North,5,3.0,3.0,58,0.00,,---,0.00,VWS V14.01,2013-12-14 08:47:00,
2013-12-14 03:52:00,23.8,10.8,30.44,NNE,31,4.0,5.0,57,0.00,,---,0.00,VWS V14.01,2013-12-14 08:52:00,
2013-12-14 03:57:00,23.7,10.7,30.44,NW,322,3.0,4.0,57,0.00,,---,0.00,VWS V14.01,2013-12-14 08:57:00,
2013-12-14 04:02:00,23.6,10.6,30.45,North,360,4.0,5.0,57,0.00,,---,0.00,VWS V14.01,2013-12-14 09:02:00,
2013-12-14 04:07:00,23.6,10.6,30.45,North,355,2.0,2.0,57,0.00,,---,0.00,VWS V14.01,2013-12-14 09:07:00,
2013-12-14 04:12:00,23.5,10.5,30.45,NNE,20,3.0,3.0,57,0.00,,---,0.00,VWS V14.01,2013-12-14 09:12:00,
2013-12-14 04:17:00,23.5,10.5,30.45,North,349,3.0,3.0,57,0.00,,---,0.00,VWS V14.01,2013-12-14 09:17:00,
2013-12-14 04:22:00,23.4,10.8,30.45,NNW,348,3.0,5.0,58,0.00,,---,0.00,VWS V14.01,2013-12-14 09:22:00,
2013-12-14 04:27:00,23.4,10.8,30.45,NNE,26,3.0,8.0,58,0.00,,---,0.00,VWS V14.01,2013-12-14 09:27:00,
2013-12-14 04:32:00,23.4,10.8,30.45,NW,317,2.0,2.0,58,0.00,,---,0.00,VWS V14.01,2013-12-14 09:32:00,
2013-12-14 04:37:00,23.3,11.1,30.45,North,10,4.0,4.0,59,0.00,,---,0.00,VWS V14.01,2013-12-14 09:37:00,
2013-12-14 04:42:00,23.2,11.0,30.45,NNE,32,6.0,6.0,59,0.00,,---,0.00,VWS V14.01,2013-12-14 09:42:00,
2013-12-14 04:47:00,23.2,11.4,30.46,NE,53,8.0,8.0,60,0.00,,---,0.00,VWS V14.01,2013-12-14 09:47:00,
2013-12-14 04:52:00,23.1,11.7,30.46,NE,44,4.0,7.0,61,0.00,,---,0.00,VWS V14.01,2013-12-14 09:52:00,
2013-12-14 04:57:00,23.1,12.0,30.46,North,355,3.0,4.0,62,0.00,,---,0.00,VWS V14.01,2013-12-14 09:57:00,
2013-12-14 05:02:00,23.0,11.9,30.47,North,10,5.0,5.0,62,0.00,,---,0.00,VWS V14.01,2013-12-14 10:02:00,
2013-12-14 05:07:00,22.9,12.2,30.47,NE,37,6.0,7.0,63,0.00,,---,0.00,VWS V14.01,2013-12-14 10:07:00,
2013-12-14 05:12:00,22.6,12.3,30.47,NE,49,4.0,9.0,64,0.00,,---,0.00,VWS V14.01,2013-12-14 10:12:00,
2013-12-14 05:17:00,22.5,12.5,30.47,North,360,3.0,4.0,65,0.00,,---,0.00,VWS V14.01,2013-12-14 10:17:00,
2013-12-14 05:22:00,22.3,13.0,30.47,North,5,2.0,4.0,67,0.00,,---,0.00,VWS V14.01,2013-12-14 10:22:00,
2013-12-14 05:27:00,22.1,12.8,30.47,NE,34,3.0,3.0,67,0.00,,---,0.00,VWS V14.01,2013-12-14 10:27:00,
2013-12-14 05:32:00,22.0,13.1,30.47,NNW,344,7.0,7.0,68,0.00,,---,0.00,VWS V14.01,2013-12-14 10:32:00,
2013-12-14 05:37:00,21.9,13.0,30.47,North,5,5.0,9.0,68,0.00,,---,0.00,VWS V14.01,2013-12-14 10:37:00,
2013-12-14 05:42:00,21.9,13.3,30.47,NE,44,4.0,4.0,69,0.00,,---,0.00,VWS V14.01,2013-12-14 10:42:00,
2013-12-14 05:47:00,21.9,13.0,30.48,NNW,348,2.0,5.0,68,0.00,,---,0.00,VWS V14.01,2013-12-14 10:47:00,
2013-12-14 05:52:00,21.8,12.9,30.48,NNW,342,3.0,4.0,68,0.00,,---,0.00,VWS V14.01,2013-12-14 10:52:00,
2013-12-14 05:57:00,21.8,13.2,30.48,NNE,17,4.0,6.0,69,0.00,,---,0.00,VWS V14.01,2013-12-14 10:57:00,
2013-12-14 06:02:00,21.8,13.2,30.49,NE,36,4.0,5.0,69,0.00,,---,0.00,VWS V14.01,2013-12-14 11:02:00,
2013-12-14 06:07:00,21.7,13.1,30.49,NNW,329,5.0,5.0,69,0.00,,---,0.00,VWS V14.01,2013-12-14 11:07:00,
2013-12-14 06:12:00,21.8,13.2,30.49,North,5,7.0,7.0,69,0.00,,---,0.00,VWS V14.01,2013-12-14 11:12:00,
2013-12-14 06:17:00,21.7,13.4,30.50,WNW,284,2.0,4.0,70,0.00,,---,0.00,VWS V14.01,2013-12-14 11:17:00,
2013-12-14 06:22:00,21.6,13.7,30.50,NNW,340,5.0,5.0,71,0.00,,---,0.00,VWS V14.01,2013-12-14 11:22:00,
2013-12-14 06:27:00,21.5,13.9,30.50,NNW,348,1.0,2.0,72,0.00,,---,0.00,VWS V14.01,2013-12-14 11:27:00,
2013-12-14 06:32:00,21.5,14.2,30.50,NNE,19,0.0,1.0,73,0.00,,---,0.00,VWS V14.01,2013-12-14 11:32:00,
2013-12-14 06:37:00,21.5,14.5,30.50,NE,49,1.0,3.0,74,0.00,,---,0.00,VWS V14.01,2013-12-14 11:37:00,
2013-12-14 06:42:00,21.4,14.4,30.50,NNE,23,5.0,6.0,74,0.00,,---,0.00,VWS V14.01,2013-12-14 11:42:00,
2013-12-14 06:47:00,21.3,14.6,30.51,NE,40,2.0,3.0,75,0.00,,---,0.00,VWS V14.01,2013-12-14 11:47:00,
2013-12-14 06:52:00,21.2,15.1,30.51,NNE,29,1.0,1.0,77,0.00,,---,0.00,VWS V14.01,2013-12-14 11:52:00,
2013-12-14 06:57:00,21.1,15.3,30.51,ENE,75,2.0,3.0,78,0.00,,---,0.00,VWS V14.01,2013-12-14 11:57:00,
2013-12-14 07:02:00,20.9,15.7,30.52,NE,55,3.0,6.0,80,0.00,,---,0.00,VWS V14.01,2013-12-14 12:02:00,
2013-12-14 07:07:00,20.6,15.4,30.52,NE,54,2.0,3.0,80,0.00,,---,0.00,VWS V14.01,2013-12-14 12:07:00,
2013-12-14 07:12:00,20.3,15.4,30.52,NE,44,2.0,2.0,81,0.00,,---,0.00,VWS V14.01,2013-12-14 12:12:00,
2013-12-14 07:17:00,20.1,15.5,30.52,ENE,63,10.0,10.0,82,0.00,,---,0.00,VWS V14.01,2013-12-14 12:17:00,
2013-12-14 07:22:00,19.9,15.3,30.52,East,93,3.0,6.0,82,0.00,,---,0.00,VWS V14.01,2013-12-14 12:22:00,
2013-12-14 07:27:00,19.8,15.5,30.52,NE,40,2.0,4.0,83,0.00,,---,0.00,VWS V14.01,2013-12-14 12:27:00,
2013-12-14 07:32:00,19.7,15.4,30.53,NE,34,4.0,6.0,83,0.00,,---,0.00,VWS V14.01,2013-12-14 12:32:00,
2013-12-14 07:37:00,19.6,15.3,30.53,NE,47,4.0,4.0,83,0.00,,---,0.00,VWS V14.01,2013-12-14 12:37:00,
2013-12-14 07:42:00,19.5,15.2,30.53,ENE,69,4.0,5.0,83,0.00,,---,0.00,VWS V14.01,2013-12-14 12:42:00,
2013-12-14 07:47:00,19.4,15.1,30.54,East,86,3.0,5.0,83,0.00,,---,0.00,VWS V14.01,2013-12-14 12:47:00,
2013-12-14 07:52:00,19.3,15.0,30.54,ENE,57,3.0,4.0,83,0.00,,---,0.00,VWS V14.01,2013-12-14 12:52:00,
2013-12-14 07:57:00,19.2,14.9,30.54,ENE,71,2.0,5.0,83,0.00,,---,0.00,VWS V14.01,2013-12-14 12:57:00,
2013-12-14 08:02:00,19.2,14.9,30.55,ENE,78,2.0,4.0,83,0.00,,---,0.00,VWS V14.01,2013-12-14 13:02:00,
2013-12-14 08:07:00,19.2,14.9,30.55,NE,49,4.0,7.0,83,0.00,,---,0.00,VWS V14.01,2013-12-14 13:07:00,
2013-12-14 08:12:00,19.1,15.1,30.55,NE,34,5.0,5.0,84,0.00,,---,0.00,VWS V14.01,2013-12-14 13:12:00,
2013-12-14 08:17:00,19.1,14.8,30.55,NE,37,2.0,3.0,83,0.00,,---,0.00,VWS V14.01,2013-12-14 13:17:00,
2013-12-14 08:22:00,19.1,14.2,30.55,NNE,16,3.0,9.0,81,0.00,,---,0.00,VWS V14.01,2013-12-14 13:22:00,
2013-12-14 08:27:00,19.1,13.7,30.55,NNE,31,5.0,7.0,79,0.00,,---,0.00,VWS V14.01,2013-12-14 13:27:00,
2013-12-14 08:32:00,19.0,13.6,30.55,ENE,58,7.0,7.0,79,0.00,,---,0.00,VWS V14.01,2013-12-14 13:32:00,
2013-12-14 08:37:00,19.0,13.6,30.55,ENE,64,7.0,7.0,79,0.00,,---,0.00,VWS V14.01,2013-12-14 13:37:00,
2013-12-14 08:42:00,19.1,13.7,30.55,ENE,73,2.0,3.0,79,0.00,,---,0.00,VWS V14.01,2013-12-14 13:42:00,
2013-12-14 08:47:00,19.2,13.8,30.56,NNE,24,5.0,9.0,79,0.00,,---,0.00,VWS V14.01,2013-12-14 13:47:00,
2013-12-14 08:52:00,19.0,13.3,30.56,NE,42,5.0,8.0,78,0.00,,---,0.00,VWS V14.01,2013-12-14 13:52:00,
2013-12-14 08:57:00,19.0,13.3,30.56,NNE,23,6.0,6.0,78,0.00,,---,0.00,VWS V14.01,2013-12-14 13:57:00,
2013-12-14 09:02:00,19.1,13.4,30.56,NE,37,3.0,3.0,78,0.00,,---,0.00,VWS V14.01,2013-12-14 14:02:00,
2013-12-14 09:07:00,19.1,13.4,30.56,ENE,62,5.0,5.0,78,0.00,,---,0.00,VWS V14.01,2013-12-14 14:07:00,
2013-12-14 09:12:00,19.0,13.6,30.56,NE,44,1.0,5.0,79,0.00,,---,0.00,VWS V14.01,2013-12-14 14:12:00,
2013-12-14 09:17:00,19.1,13.7,30.57,ENE,71,4.0,5.0,79,0.00,,---,0.00,VWS V14.01,2013-12-14 14:17:00,
2013-12-14 09:22:00,18.9,13.5,30.57,ENE,76,8.0,9.0,79,0.00,,---,0.00,VWS V14.01,2013-12-14 14:22:00,
2013-12-14 09:27:00,18.7,13.3,30.57,NE,38,5.0,5.0,79,0.00,,---,0.00,VWS V14.01,2013-12-14 14:27:00,
2013-12-14 09:32:00,18.6,13.2,30.57,ENE,66,8.0,9.0,79,0.00,,---,0.00,VWS V14.01,2013-12-14 14:32:00,
2013-12-14 09:37:00,18.5,13.4,30.57,NNE,13,3.0,4.0,80,0.00,,---,0.00,VWS V14.01,2013-12-14 14:37:00,
2013-12-14 09:42:00,18.5,13.4,30.57,ENE,78,0.0,2.0,80,0.00,,---,0.00,VWS V14.01,2013-12-14 14:42:00,
2013-12-14 09:47:00,18.5,13.4,30.58,NNE,27,4.0,4.0,80,0.00,,---,0.00,VWS V14.01,2013-12-14 14:47:00,
2013-12-14 09:52:00,18.4,13.6,30.58,NNW,348,8.0,8.0,81,0.00,,---,0.00,VWS V14.01,2013-12-14 14:52:00,
2013-12-14 09:57:00,18.4,13.6,30.58,NNE,22,5.0,5.0,81,0.00,,---,0.00,VWS V14.01,2013-12-14 14:57:00,
2013-12-14 10:02:00,18.4,13.6,30.58,NE,41,2.0,3.0,81,0.00,,---,0.00,VWS V14.01,2013-12-14 15:02:00,
2013-12-14 10:07:00,18.4,13.8,30.58,NE,55,4.0,6.0,82,0.00,,---,0.00,VWS V14.01,2013-12-14 15:07:00,
2013-12-14 10:12:00,18.5,13.9,30.58,East,89,7.0,8.0,82,0.00,,---,0.00,VWS V14.01,2013-12-14 15:12:00,
2013-12-14 10:17:00,18.4,13.8,30.58,NNE,32,4.0,4.0,82,0.00,,---,0.00,VWS V14.01,2013-12-14 15:17:00,
2013-12-14 10:22:00,18.4,14.4,30.58,North,355,3.0,4.0,84,0.00,,---,0.00,VWS V14.01,2013-12-14 15:22:00,
2013-12-14 10:27:00,18.4,13.8,30.58,NE,36,6.0,7.0,82,0.00,,---,0.00,VWS V14.01,2013-12-14 15:27:00,
2013-12-14 10:32:00,18.5,13.9,30.58,NE,34,5.0,6.0,82,0.00,,---,0.00,VWS V14.01,2013-12-14 15:32:00,
2013-12-14 10:37:00,18.4,13.6,30.58,NE,38,8.0,9.0,81,0.00,,---,0.00,VWS V14.01,2013-12-14 15:37:00,
2013-12-14 10:42:00,18.3,13.2,30.58,ENE,59,3.0,9.0,80,0.00,,---,0.00,VWS V14.01,2013-12-14 15:42:00,
2013-12-14 10:47:00,18.4,13.6,30.58,NE,46,2.0,2.0,81,0.00,,---,0.00,VWS V14.01,2013-12-14 15:47:00,
2013-12-14 10:52:00,18.5,13.9,30.58,NE,42,4.0,4.0,82,0.00,,---,0.00,VWS V14.01,2013-12-14 15:52:00,
2013-12-14 10:57:00,18.4,13.8,30.58,NE,40,6.0,7.0,82,0.00,,---,0.00,VWS V14.01,2013-12-14 15:57:00,
2013-12-14 11:02:00,18.4,14.1,30.58,East,84,3.0,6.0,83,0.00,,---,0.00,VWS V14.01,2013-12-14 16:02:00,
2013-12-14 11:07:00,18.3,13.7,30.58,ENE,77,7.0,7.0,82,0.00,,---,0.00,VWS V14.01,2013-12-14 16:07:00,
2013-12-14 11:12:00,18.2,13.6,30.58,ENE,65,8.0,10.0,82,0.00,,---,0.00,VWS V14.01,2013-12-14 16:12:00,
2013-12-14 11:17:00,18.2,13.6,30.57,NE,53,8.0,8.0,82,0.00,,---,0.00,VWS V14.01,2013-12-14 16:17:00,
2013-12-14 11:22:00,18.2,13.4,30.57,NE,53,8.0,8.0,81,0.00,,---,0.00,VWS V14.01,2013-12-14 16:22:00,
2013-12-14 11:27:00,18.2,13.1,30.57,ENE,75,4.0,6.0,80,0.00,,---,0.00,VWS V14.01,2013-12-14 16:27:00,
2013-12-14 11:32:00,18.2,13.4,30.56,East,81,3.0,5.0,81,0.00,,---,0.00,VWS V14.01,2013-12-14 16:32:00,
2013-12-14 11:37:00,18.2,13.6,30.56,NNE,30,5.0,14.0,82,0.00,,---,0.00,VWS V14.01,2013-12-14 16:37:00,
2013-12-14 11:42:00,17.9,13.1,30.56,NE,42,7.0,8.0,81,0.00,,---,0.00,VWS V14.01,2013-12-14 16:42:00,
2013-12-14 11:46:00,17.9,13.4,30.56,ENE,57,7.0,7.0,82,0.00,,---,0.00,VWS V14.01,2013-12-14 16:46:00,
2013-12-14 11:51:00,18.0,13.4,30.56,NE,53,5.0,8.0,82,0.00,,---,0.00,VWS V14.01,2013-12-14 16:51:00,
2013-12-14 11:56:00,18.0,13.2,30.56,ENE,67,5.0,10.0,81,0.00,,---,0.00,VWS V14.01,2013-12-14 16:56:00,
2013-12-14 12:01:00,17.6,12.5,30.55,ENE,57,10.0,10.0,80,0.00,,---,0.00,VWS V14.01,2013-12-14 17:01:00,
2013-12-14 12:06:00,17.6,12.8,30.55,NNE,24,3.0,4.0,81,0.00,,---,0.00,VWS V14.01,2013-12-14 17:06:00,
2013-12-14 12:11:00,17.6,13.1,30.55,North,5,2.0,3.0,82,0.00,,---,0.00,VWS V14.01,2013-12-14 17:11:00,
2013-12-14 12:16:00,17.8,13.2,30.53,ENE,64,2.0,3.0,82,0.00,,---,0.00,VWS V14.01,2013-12-14 17:16:00,
2013-12-14 12:21:00,17.8,13.0,30.53,ENE,69,2.0,3.0,81,0.00,,---,0.00,VWS V14.01,2013-12-14 17:21:00,
2013-12-14 12:26:00,17.9,13.4,30.53,NE,55,4.0,4.0,82,0.00,,---,0.00,VWS V14.01,2013-12-14 17:26:00,
2013-12-14 12:31:00,18.0,13.7,30.52,NE,46,4.0,4.0,83,0.00,,---,0.00,VWS V14.01,2013-12-14 17:31:00,
2013-12-14 12:36:00,17.9,13.4,30.52,NE,51,8.0,8.0,82,0.00,,---,0.00,VWS V14.01,2013-12-14 17:36:00,
2013-12-14 12:41:00,17.8,13.5,30.52,NE,34,5.0,6.0,83,0.00,,---,0.00,VWS V14.01,2013-12-14 17:41:00,
2013-12-14 12:46:00,17.7,13.1,30.52,NNE,14,6.0,6.0,82,0.00,,---,0.00,VWS V14.01,2013-12-14 17:46:00,
2013-12-14 12:51:00,17.6,12.8,30.52,NNE,26,5.0,5.0,81,0.00,,---,0.00,VWS V14.01,2013-12-14 17:51:00,
2013-12-14 12:56:00,17.6,12.8,30.52,NE,53,7.0,8.0,81,0.00,,---,0.00,VWS V14.01,2013-12-14 17:56:00,
2013-12-14 13:01:00,17.7,13.1,30.51,North,11,3.0,3.0,82,0.00,,---,0.00,VWS V14.01,2013-12-14 18:01:00,
2013-12-14 13:06:00,17.8,12.7,30.51,NE,37,6.0,6.0,80,0.00,,---,0.00,VWS V14.01,2013-12-14 18:06:00,
2013-12-14 13:11:00,17.7,12.6,30.51,NNE,14,2.0,4.0,80,0.00,,---,0.00,VWS V14.01,2013-12-14 18:11:00,
2013-12-14 13:16:00,17.9,12.8,30.51,NNE,32,3.0,4.0,80,0.00,,---,0.00,VWS V14.01,2013-12-14 18:16:00,
2013-12-14 13:21:00,17.8,12.4,30.51,NE,53,2.0,3.0,79,0.00,,---,0.00,VWS V14.01,2013-12-14 18:21:00,
2013-12-14 13:26:00,17.8,12.4,30.51,NNE,13,5.0,5.0,79,0.00,,---,0.00,VWS V14.01,2013-12-14 18:26:00,
2013-12-14 13:31:00,17.7,12.3,30.50,NE,42,6.0,10.0,79,0.00,,---,0.00,VWS V14.01,2013-12-14 18:31:00,
2013-12-14 13:37:00,17.7,12.6,30.50,NE,41,5.0,6.0,80,0.00,,---,0.00,VWS V14.01,2013-12-14 18:37:00,
2013-12-14 13:41:00,17.9,13.1,30.50,NE,39,3.0,5.0,81,0.00,,---,0.00,VWS V14.01,2013-12-14 18:41:00,
2013-12-14 13:47:00,17.9,12.8,30.50,ENE,69,5.0,5.0,80,0.00,,---,0.00,VWS V14.01,2013-12-14 18:47:00,
2013-12-14 13:52:00,17.7,12.6,30.50,NE,36,7.0,9.0,80,0.00,,---,0.00,VWS V14.01,2013-12-14 18:52:00,
2013-12-14 13:57:00,17.6,12.5,30.50,NNE,25,7.0,11.0,80,0.00,,---,0.00,VWS V14.01,2013-12-14 18:57:00,
2013-12-14 14:02:00,17.6,12.8,30.50,ENE,57,10.0,10.0,81,0.00,,---,0.00,VWS V14.01,2013-12-14 19:02:00,
2013-12-14 14:07:00,17.5,12.4,30.50,North,11,5.0,6.0,80,0.00,,---,0.00,VWS V14.01,2013-12-14 19:07:00,
2013-12-14 14:12:00,17.5,12.7,30.50,ENE,67,7.0,8.0,81,0.00,,---,0.00,VWS V14.01,2013-12-14 19:12:00,
2013-12-14 14:17:00,17.5,12.7,30.49,NNE,19,4.0,6.0,81,0.00,,---,0.00,VWS V14.01,2013-12-14 19:17:00,
2013-12-14 14:22:00,17.5,12.7,30.49,East,87,1.0,4.0,81,0.00,,---,0.00,VWS V14.01,2013-12-14 19:22:00,
2013-12-14 14:27:00,17.4,12.9,30.49,NNE,32,5.0,5.0,82,0.00,,---,0.00,VWS V14.01,2013-12-14 19:27:00,
2013-12-14 14:32:00,17.3,13.0,30.49,NNE,32,8.0,8.0,83,0.00,,---,0.00,VWS V14.01,2013-12-14 19:32:00,
2013-12-14 14:37:00,17.3,13.0,30.49,ENE,76,7.0,10.0,83,0.00,,---,0.00,VWS V14.01,2013-12-14 19:37:00,
2013-12-14 14:42:00,17.3,13.3,30.49,NE,54,8.0,8.0,84,0.00,,---,0.00,VWS V14.01,2013-12-14 19:42:00,
2013-12-14 14:47:00,17.3,13.3,30.50,NNE,15,2.0,5.0,84,0.00,,---,0.00,VWS V14.01,2013-12-14 19:47:00,
2013-12-14 14:52:00,17.3,13.6,30.50,NE,44,4.0,6.0,85,0.00,,---,0.00,VWS V14.01,2013-12-14 19:52:00,
2013-12-14 14:57:00,17.3,13.8,30.50,NE,52,3.0,3.0,86,0.00,,---,0.00,VWS V14.01,2013-12-14 19:57:00,
2013-12-14 15:02:00,17.2,13.5,30.49,ENE,61,10.0,11.0,85,0.00,,---,0.00,VWS V14.01,2013-12-14 20:02:00,
2013-12-14 15:07:00,17.1,13.6,30.49,ENE,61,3.0,4.0,86,0.00,,---,0.00,VWS V14.01,2013-12-14 20:07:00,
2013-12-14 15:12:00,17.2,14.0,30.49,NE,41,3.0,5.0,87,0.00,,---,0.00,VWS V14.01,2013-12-14 20:12:00,
2013-12-14 15:17:00,17.2,14.0,30.49,NE,36,3.0,5.0,87,0.00,,---,0.00,VWS V14.01,2013-12-14 20:17:00,
2013-12-14 15:22:00,17.2,14.0,30.49,ENE,78,4.0,6.0,87,0.00,,---,0.00,VWS V14.01,2013-12-14 20:22:00,
2013-12-14 15:27:00,17.1,13.9,30.49,NE,46,2.0,5.0,87,0.00,,---,0.00,VWS V14.01,2013-12-14 20:27:00,
2013-12-14 15:32:00,17.0,13.8,30.47,NE,44,7.0,8.0,87,0.00,,---,0.00,VWS V14.01,2013-12-14 20:32:00,
2013-12-14 15:37:00,16.9,13.7,30.47,NNE,26,3.0,9.0,87,0.00,,---,0.00,VWS V14.01,2013-12-14 20:37:00,
2013-12-14 15:42:00,16.9,13.7,30.47,NE,34,3.0,4.0,87,0.00,,---,0.00,VWS V14.01,2013-12-14 20:42:00,
2013-12-14 15:47:00,16.9,13.7,30.46,NE,49,6.0,8.0,87,0.00,,---,0.00,VWS V14.01,2013-12-14 20:47:00,
2013-12-14 15:52:00,16.9,13.7,30.46,ENE,59,7.0,8.0,87,0.00,,---,0.00,VWS V14.01,2013-12-14 20:52:00,
2013-12-14 15:57:00,16.9,13.7,30.46,ENE,57,10.0,10.0,87,0.00,,---,0.00,VWS V14.01,2013-12-14 20:57:00,
2013-12-14 16:02:00,16.8,13.6,30.45,East,81,2.0,2.0,87,0.00,,---,0.00,VWS V14.01,2013-12-14 21:02:00,
2013-12-14 16:07:00,16.9,14.0,30.45,NNE,24,8.0,9.0,88,0.00,,---,0.00,VWS V14.01,2013-12-14 21:07:00,
2013-12-14 16:12:00,16.9,13.7,30.45,NE,46,3.0,10.0,87,0.00,,---,0.00,VWS V14.01,2013-12-14 21:12:00,
2013-12-14 16:17:00,16.9,13.7,30.44,North,11,4.0,8.0,87,0.00,,---,0.00,VWS V14.01,2013-12-14 21:17:00,
2013-12-14 16:22:00,17.0,14.1,30.44,ENE,74,4.0,7.0,88,0.00,,---,0.00,VWS V14.01,2013-12-14 21:22:00,
2013-12-14 16:27:00,17.0,14.1,30.44,NE,49,5.0,10.0,88,0.00,,---,0.00,VWS V14.01,2013-12-14 21:27:00,
2013-12-14 16:32:00,17.1,14.2,30.44,NNE,22,4.0,5.0,88,0.00,,---,0.00,VWS V14.01,2013-12-14 21:32:00,
2013-12-14 16:37:00,17.2,14.3,30.44,NE,51,4.0,5.0,88,0.00,,---,0.00,VWS V14.01,2013-12-14 21:37:00,
2013-12-14 16:42:00,17.3,14.4,30.44,NNE,15,5.0,8.0,88,0.00,,---,0.00,VWS V14.01,2013-12-14 21:42:00,
2013-12-14 16:47:00,17.4,14.5,30.42,NE,48,7.0,7.0,88,0.00,,---,0.00,VWS V14.01,2013-12-14 21:47:00,
2013-12-14 16:52:00,17.6,14.7,30.42,NE,42,5.0,7.0,88,0.00,,---,0.00,VWS V14.01,2013-12-14 21:52:00,
2013-12-14 16:57:00,17.7,14.8,30.42,NE,53,3.0,5.0,88,0.00,,---,0.00,VWS V14.01,2013-12-14 21:57:00,
2013-12-14 17:02:00,17.9,14.9,30.41,NE,37,4.0,5.0,88,0.00,,---,0.00,VWS V14.01,2013-12-14 22:02:00,
2013-12-14 17:07:00,18.0,15.1,30.41,ENE,77,2.0,4.0,88,0.00,,---,0.00,VWS V14.01,2013-12-14 22:07:00,
2013-12-14 17:12:00,18.0,15.1,30.41,NNE,17,3.0,6.0,88,0.00,,---,0.00,VWS V14.01,2013-12-14 22:12:00,
2013-12-14 17:17:00,18.2,15.2,30.39,ENE,66,7.0,8.0,88,0.00,,---,0.00,VWS V14.01,2013-12-14 22:17:00,
2013-12-14 17:22:00,18.3,15.4,30.39,East,80,2.0,5.0,88,0.00,,---,0.00,VWS V14.01,2013-12-14 22:22:00,
2013-12-14 17:27:00,18.4,15.4,30.39,NNE,23,5.0,6.0,88,0.00,,---,0.00,VWS V14.01,2013-12-14 22:27:00,
2013-12-14 17:32:00,18.5,15.6,30.38,NNE,28,0.0,3.0,88,0.00,,---,0.00,VWS V14.01,2013-12-14 22:32:00,
2013-12-14 17:37:00,18.6,15.6,30.38,NNE,19,5.0,6.0,88,0.00,,---,0.00,VWS V14.01,2013-12-14 22:37:00,
2013-12-14 17:42:00,18.7,15.7,30.38,ENE,59,9.0,10.0,88,0.00,,---,0.00,VWS V14.01,2013-12-14 22:42:00,
2013-12-14 17:47:00,18.9,15.9,30.36,NE,46,7.0,11.0,88,0.00,,---,0.00,VWS V14.01,2013-12-14 22:47:00,
2013-12-14 17:52:00,19.0,15.8,30.36,NE,40,4.0,4.0,87,0.00,,---,0.00,VWS V14.01,2013-12-14 22:52:00,
2013-12-14 17:57:00,19.1,15.9,30.36,NE,46,10.0,10.0,87,0.00,,---,0.00,VWS V14.01,2013-12-14 22:57:00,
2013-12-14 18:02:00,19.3,16.1,30.35,North,9,5.0,9.0,87,0.00,,---,0.00,VWS V14.01,2013-12-14 23:02:00,
2013-12-14 18:07:00,19.5,16.3,30.35,NNE,16,7.0,7.0,87,0.00,,---,0.00,VWS V14.01,2013-12-14 23:07:00,
2013-12-14 18:12:00,19.6,16.4,30.35,ESE,119,1.0,3.0,87,0.00,,---,0.00,VWS V14.01,2013-12-14 23:12:00,
2013-12-14 18:17:00,19.7,16.5,30.36,ENE,61,3.0,4.0,87,0.00,,---,0.00,VWS V14.01,2013-12-14 23:17:00,
2013-12-14 18:22:00,19.9,16.7,30.36,ENE,72,3.0,6.0,87,0.00,,---,0.00,VWS V14.01,2013-12-14 23:22:00,
2013-12-14 18:27:00,20.0,16.8,30.36,NNE,32,0.0,2.0,87,0.00,,---,0.00,VWS V14.01,2013-12-14 23:27:00,
2013-12-14 18:32:00,20.1,16.9,30.36,NE,38,4.0,4.0,87,0.00,,---,0.00,VWS V14.01,2013-12-14 23:32:00,
2013-12-14 18:37:00,20.1,16.9,30.36,NNE,17,3.0,7.0,87,0.00,,---,0.00,VWS V14.01,2013-12-14 23:37:00,
2013-12-14 18:42:00,20.2,17.2,30.36,ENE,59,7.0,8.0,88,0.00,,---,0.00,VWS V14.01,2013-12-14 23:42:00,
2013-12-14 18:47:00,20.3,17.3,30.35,NE,38,6.0,9.0,88,0.00,,---,0.00,VWS V14.01,2013-12-14 23:47:00,
2013-12-14 18:52:00,20.2,17.5,30.35,NNE,14,6.0,9.0,89,0.00,,---,0.00,VWS V14.01,2013-12-14 23:52:00,
2013-12-14 18:57:00,20.2,17.7,30.35,NE,38,6.0,8.0,90,0.00,,---,0.00,VWS V14.01,2013-12-14 23:57:00,
2013-12-14 19:02:00,20.2,17.7,30.33,NE,41,10.0,10.0,90,0.00,,---,0.00,VWS V14.01,2013-12-15 00:02:00,
2013-12-14 19:06:00,20.3,17.8,30.33,NNE,20,3.0,4.0,90,0.00,,---,0.00,VWS V14.01,2013-12-15 00:06:00,
2013-12-14 19:11:00,20.3,17.8,30.33,ENE,69,3.0,4.0,90,0.00,,---,0.00,VWS V14.01,2013-12-15 00:11:00,
2013-12-14 19:16:00,20.4,17.9,30.32,NNE,28,3.0,5.0,90,0.00,,---,0.00,VWS V14.01,2013-12-15 00:16:00,
2013-12-14 19:21:00,20.5,18.3,30.32,ENE,72,4.0,5.0,91,0.00,,---,0.00,VWS V14.01,2013-12-15 00:21:00,
2013-12-14 19:27:00,20.6,18.4,30.32,NE,42,2.0,4.0,91,0.00,,---,0.00,VWS V14.01,2013-12-15 00:27:00,
2013-12-14 19:32:00,20.7,18.5,30.30,ENE,62,1.0,2.0,91,0.00,,---,0.00,VWS V14.01,2013-12-15 00:32:00,
2013-12-14 19:37:00,20.8,18.6,30.30,ENE,61,3.0,4.0,91,0.00,,---,0.00,VWS V14.01,2013-12-15 00:37:00,
2013-12-14 19:42:00,20.9,18.7,30.30,ENE,65,2.0,3.0,91,0.00,,---,0.00,VWS V14.01,2013-12-15 00:42:00,
2013-12-14 19:47:00,21.1,18.9,30.29,NNE,32,10.0,12.0,91,0.00,,---,0.00,VWS V14.01,2013-12-15 00:47:00,
2013-12-14 19:52:00,21.2,19.2,30.29,ENE,75,3.0,5.0,92,0.00,,---,0.00,VWS V14.01,2013-12-15 00:52:00,
2013-12-14 19:57:00,21.3,19.3,30.29,NNE,30,5.0,7.0,92,0.00,,---,0.00,VWS V14.01,2013-12-15 00:57:00,
2013-12-14 20:02:00,21.5,19.5,30.28,NE,50,10.0,10.0,92,0.00,,---,0.00,VWS V14.01,2013-12-15 01:02:00,
2013-12-14 20:07:00,21.6,19.6,30.28,NE,55,10.0,10.0,92,0.00,,---,0.00,VWS V14.01,2013-12-15 01:07:00,
2013-12-14 20:12:00,21.7,19.7,30.28,ENE,65,4.0,8.0,92,0.00,,---,0.00,VWS V14.01,2013-12-15 01:12:00,
2013-12-14 20:17:00,21.9,19.9,30.27,ENE,71,9.0,10.0,92,0.00,,---,0.00,VWS V14.01,2013-12-15 01:17:00,
2013-12-14 20:22:00,22.0,20.3,30.27,NE,40,3.0,10.0,93,0.00,,---,0.00,VWS V14.01,2013-12-15 01:22:00,
2013-12-14 20:27:00,22.1,20.4,30.27,East,80,6.0,7.0,93,0.00,,---,0.00,VWS V14.01,2013-12-15 01:27:00,
2013-12-14 20:32:00,22.4,20.7,30.26,ENE,67,7.0,9.0,93,0.00,,---,0.00,VWS V14.01,2013-12-15 01:32:00,
2013-12-14 20:37:00,22.5,20.8,30.26,ENE,62,7.0,9.0,93,0.00,,---,0.00,VWS V14.01,2013-12-15 01:37:00,
2013-12-14 20:42:00,22.7,21.0,30.26,ENE,63,5.0,5.0,93,0.00,,---,0.00,VWS V14.01,2013-12-15 01:42:00,
2013-12-14 20:47:00,22.9,21.2,30.24,NE,35,5.0,5.0,93,0.00,,---,0.00,VWS V14.01,2013-12-15 01:47:00,
2013-12-14 20:52:00,23.1,21.4,30.24,NNE,20,3.0,7.0,93,0.00,,---,0.00,VWS V14.01,2013-12-15 01:52:00,
2013-12-14 20:57:00,23.3,21.6,30.24,East,82,5.0,5.0,93,0.00,,---,0.00,VWS V14.01,2013-12-15 01:57:00,
2013-12-14 21:02:00,23.5,21.8,30.23,NE,41,5.0,8.0,93,0.00,,---,0.00,VWS V14.01,2013-12-15 02:02:00,
2013-12-14 21:07:00,23.7,22.2,30.23,ENE,59,9.0,9.0,94,0.00,,---,0.00,VWS V14.01,2013-12-15 02:07:00,
2013-12-14 21:12:00,23.9,22.4,30.23,ENE,62,5.0,7.0,94,0.00,,---,0.00,VWS V14.01,2013-12-15 02:12:00,
2013-12-14 21:17:00,24.1,22.6,30.20,ENE,58,13.0,13.0,94,0.00,,---,0.00,VWS V14.01,2013-12-15 02:17:00,
2013-12-14 21:22:00,24.3,22.8,30.20,East,84,7.0,13.0,94,0.00,,---,0.00,VWS V14.01,2013-12-15 02:22:00,
2013-12-14 21:27:00,24.5,23.0,30.20,NNE,31,6.0,6.0,94,0.00,,---,0.00,VWS V14.01,2013-12-15 02:27:00,
2013-12-14 21:32:00,24.7,23.2,30.18,NE,45,8.0,9.0,94,0.00,,---,0.00,VWS V14.01,2013-12-15 02:32:00,
2013-12-14 21:37:00,24.9,23.4,30.18,ENE,65,3.0,3.0,94,0.00,,---,0.00,VWS V14.01,2013-12-15 02:37:00,
2013-12-14 21:42:00,25.1,23.6,30.18,East,81,11.0,11.0,94,0.00,,---,0.00,VWS V14.01,2013-12-15 02:42:00,
2013-12-14 21:46:00,25.3,23.8,30.17,ENE,76,5.0,7.0,94,0.00,,---,0.00,VWS V14.01,2013-12-15 02:46:00,
2013-12-14 21:51:00,25.5,24.0,30.17,NE,55,11.0,12.0,94,0.00,,---,0.00,VWS V14.01,2013-12-15 02:51:00,
2013-12-14 21:56:00,25.7,24.2,30.17,NE,55,7.0,9.0,94,0.00,,---,0.00,VWS V14.01,2013-12-15 02:56:00,
2013-12-14 22:01:00,25.7,24.2,30.15,East,79,2.0,2.0,94,0.00,,---,0.00,VWS V14.01,2013-12-15 03:01:00,
2013-12-14 22:06:00,25.8,24.3,30.15,NE,36,12.0,12.0,94,0.00,,---,0.00,VWS V14.01,2013-12-15 03:06:00,
2013-12-14 22:11:00,25.9,24.4,30.15,ENE,61,3.0,4.0,94,0.00,,---,0.00,VWS V14.01,2013-12-15 03:11:00,
2013-12-14 22:16:00,25.9,24.7,30.12,ENE,69,4.0,4.0,95,0.00,,---,0.00,VWS V14.01,2013-12-15 03:16:00,
2013-12-14 22:21:00,26.0,24.8,30.12,NE,56,6.0,6.0,95,0.00,,---,0.00,VWS V14.01,2013-12-15 03:21:00,
2013-12-14 22:26:00,26.1,24.9,30.12,ENE,64,4.0,4.0,95,0.00,,---,0.00,VWS V14.01,2013-12-15 03:26:00,
2013-12-14 22:31:00,26.2,25.0,30.12,NE,54,3.0,3.0,95,0.00,,---,0.00,VWS V14.01,2013-12-15 03:31:00,
2013-12-14 22:36:00,26.3,25.1,30.12,NNE,27,3.0,5.0,95,0.00,,---,0.00,VWS V14.01,2013-12-15 03:36:00,
2013-12-14 22:41:00,26.3,25.1,30.12,ENE,72,7.0,11.0,95,0.00,,---,0.00,VWS V14.01,2013-12-15 03:41:00,
2013-12-14 22:46:00,26.6,25.4,30.09,ENE,57,2.0,3.0,95,0.00,,---,0.00,VWS V14.01,2013-12-15 03:46:00,
2013-12-14 22:51:00,26.7,25.5,30.09,ENE,66,11.0,12.0,95,0.00,,---,0.00,VWS V14.01,2013-12-15 03:51:00,
2013-12-14 22:56:00,26.9,25.7,30.09,ENE,59,8.0,8.0,95,0.00,,---,0.00,VWS V14.01,2013-12-15 03:56:00,
2013-12-14 23:01:00,27.1,25.9,30.08,NE,52,5.0,7.0,95,0.00,,---,0.00,VWS V14.01,2013-12-15 04:01:00,
2013-12-14 23:06:00,27.3,26.1,30.08,ENE,75,1.0,2.0,95,0.00,,---,0.00,VWS V14.01,2013-12-15 04:06:00,
2013-12-14 23:11:00,27.4,26.2,30.08,NE,54,3.0,3.0,95,0.00,,---,0.00,VWS V14.01,2013-12-15 04:11:00,
2013-12-14 23:16:00,27.6,26.4,30.06,ENE,71,3.0,5.0,95,0.00,,---,0.00,VWS V14.01,2013-12-15 04:16:00,
2013-12-14 23:21:00,27.9,26.7,30.06,NE,56,1.0,3.0,95,0.00,,---,0.00,VWS V14.01,2013-12-15 04:21:00,
2013-12-14 23:26:00,28.1,27.1,30.06,NE,53,6.0,7.0,96,0.00,,---,0.00,VWS V14.01,2013-12-15 04:26:00,
2013-12-14 23:31:00,28.4,27.1,30.06,NE,56,3.0,7.0,95,0.00,,---,0.00,VWS V14.01,2013-12-15 04:31:00,
2013-12-14 23:36:00,28.5,27.5,30.04,NE,44,2.0,8.0,96,0.00,,---,0.00,VWS V14.01,2013-12-15 04:36:00,
2013-12-14 23:41:00,28.5,27.5,30.04,ENE,62,2.0,7.0,96,0.00,,---,0.00,VWS V14.01,2013-12-15 04:41:00,
2013-12-14 23:46:00,28.6,27.6,30.04,NE,42,4.0,7.0,96,0.00,,---,0.00,VWS V14.01,2013-12-15 04:46:00,
2013-12-14 23:51:00,28.8,27.8,30.02,ENE,68,4.0,7.0,96,0.00,,---,0.00,VWS V14.01,2013-12-15 04:51:00,
2013-12-14 23:56:00,29.0,28.0,30.02,NE,49,2.0,3.0,96,0.00,,---,0.00,VWS V14.01,2013-12-15 04:56:00,